sensor_id;sensor_type;location;lat;lon;timestamp;P1;durP1;ratioP1;P2;durP2;ratioP2
74363;SDS011;62797;49.740;10.154;2023-06-10T00:00:45;27.13;;;15.23;;
74363;SDS011;62797;49.740;10.154;2023-06-10T00:03:11;19.40;;;12.03;;
74363;SDS011;62797;49.740;10.154;2023-06-10T00:05:38;31.83;;;16.15;;
74363;SDS011;62797;49.740;10.154;2023-06-10T00:08:04;22.48;;;14.25;;
74363;SDS011;62797;49.740;10.154;2023-06-10T00:10:33;23.75;;;13.68;;
74363;SDS011;62797;49.740;10.154;2023-06-10T00:13:02;20.77;;;12.65;;
74363;SDS011;62797;49.740;10.154;2023-06-10T00:15:29;16.92;;;11.38;;
74363;SDS011;62797;49.740;10.154;2023-06-10T00:17:55;21.92;;;13.00;;
74363;SDS011;62797;49.740;10.154;2023-06-10T00:20:20;19.38;;;13.07;;
74363;SDS011;62797;49.740;10.154;2023-06-10T00:22:51;18.15;;;12.05;;
74363;SDS011;62797;49.740;10.154;2023-06-10T00:25:17;20.67;;;12.43;;
74363;SDS011;62797;49.740;10.154;2023-06-10T00:27:44;22.77;;;13.20;;
74363;SDS011;62797;49.740;10.154;2023-06-10T00:30:10;25.42;;;13.35;;
74363;SDS011;62797;49.740;10.154;2023-06-10T00:32:36;20.20;;;13.68;;
74363;SDS011;62797;49.740;10.154;2023-06-10T00:35:02;19.33;;;14.30;;
74363;SDS011;62797;49.740;10.154;2023-06-10T00:37:30;28.98;;;12.70;;
74363;SDS011;62797;49.740;10.154;2023-06-10T00:39:57;24.55;;;12.27;;
74363;SDS011;62797;49.740;10.154;2023-06-10T00:42:24;24.08;;;13.63;;
74363;SDS011;62797;49.740;10.154;2023-06-10T00:44:50;28.85;;;12.55;;
74363;SDS011;62797;49.740;10.154;2023-06-10T00:47:16;23.08;;;15.05;;
74363;SDS011;62797;49.740;10.154;2023-06-10T00:49:42;20.70;;;14.00;;
74363;SDS011;62797;49.740;10.154;2023-06-10T00:52:09;22.05;;;12.93;;
74363;SDS011;62797;49.740;10.154;2023-06-10T00:54:36;20.48;;;11.88;;
74363;SDS011;62797;49.740;10.154;2023-06-10T00:57:02;18.00;;;13.20;;
74363;SDS011;62797;49.740;10.154;2023-06-10T01:01:56;27.42;;;14.88;;
74363;SDS011;62797;49.740;10.154;2023-06-10T01:06:54;24.63;;;14.25;;
74363;SDS011;62797;49.740;10.154;2023-06-10T01:09:55;20.95;;;13.93;;
74363;SDS011;62797;49.740;10.154;2023-06-10T01:12:39;17.80;;;12.65;;
74363;SDS011;62797;49.740;10.154;2023-06-10T01:15:16;36.13;;;14.10;;
74363;SDS011;62797;49.740;10.154;2023-06-10T01:20:23;27.60;;;14.60;;
74363;SDS011;62797;49.740;10.154;2023-06-10T01:22:52;20.90;;;14.23;;
74363;SDS011;62797;49.740;10.154;2023-06-10T01:25:23;17.77;;;13.35;;
74363;SDS011;62797;49.740;10.154;2023-06-10T01:28:24;40.92;;;16.85;;
74363;SDS011;62797;49.740;10.154;2023-06-10T01:30:54;20.50;;;13.85;;
74363;SDS011;62797;49.740;10.154;2023-06-10T01:33:39;25.52;;;16.73;;
74363;SDS011;62797;49.740;10.154;2023-06-10T01:36:08;21.65;;;13.20;;
74363;SDS011;62797;49.740;10.154;2023-06-10T01:38:37;20.08;;;14.50;;
74363;SDS011;62797;49.740;10.154;2023-06-10T01:41:07;21.80;;;14.25;;
74363;SDS011;62797;49.740;10.154;2023-06-10T01:43:34;20.83;;;14.95;;
74363;SDS011;62797;49.740;10.154;2023-06-10T01:46:02;17.55;;;13.23;;
74363;SDS011;62797;49.740;10.154;2023-06-10T01:48:28;20.23;;;15.50;;
74363;SDS011;62797;49.740;10.154;2023-06-10T01:50:54;31.37;;;16.10;;
74363;SDS011;62797;49.740;10.154;2023-06-10T01:53:22;28.55;;;16.23;;
74363;SDS011;62797;49.740;10.154;2023-06-10T01:55:48;28.30;;;16.77;;
74363;SDS011;62797;49.740;10.154;2023-06-10T01:58:15;32.38;;;15.55;;
74363;SDS011;62797;49.740;10.154;2023-06-10T02:00:42;21.55;;;16.38;;
74363;SDS011;62797;49.740;10.154;2023-06-10T02:03:08;29.27;;;19.00;;
74363;SDS011;62797;49.740;10.154;2023-06-10T02:05:33;28.88;;;16.15;;
74363;SDS011;62797;49.740;10.154;2023-06-10T02:07:59;21.47;;;14.23;;
74363;SDS011;62797;49.740;10.154;2023-06-10T02:10:25;25.58;;;15.95;;
74363;SDS011;62797;49.740;10.154;2023-06-10T02:12:51;19.03;;;15.10;;
74363;SDS011;62797;49.740;10.154;2023-06-10T02:15:17;21.35;;;13.43;;
74363;SDS011;62797;49.740;10.154;2023-06-10T02:17:45;28.00;;;15.18;;
74363;SDS011;62797;49.740;10.154;2023-06-10T02:20:11;20.30;;;14.63;;
74363;SDS011;62797;49.740;10.154;2023-06-10T02:22:39;27.88;;;15.32;;
74363;SDS011;62797;49.740;10.154;2023-06-10T02:25:07;26.77;;;15.93;;
74363;SDS011;62797;49.740;10.154;2023-06-10T02:27:33;20.70;;;14.32;;
74363;SDS011;62797;49.740;10.154;2023-06-10T02:29:59;21.40;;;14.95;;
74363;SDS011;62797;49.740;10.154;2023-06-10T02:32:25;22.67;;;14.20;;
74363;SDS011;62797;49.740;10.154;2023-06-10T02:34:51;27.23;;;15.48;;
74363;SDS011;62797;49.740;10.154;2023-06-10T02:37:18;25.42;;;15.90;;
74363;SDS011;62797;49.740;10.154;2023-06-10T02:39:45;18.92;;;13.32;;
74363;SDS011;62797;49.740;10.154;2023-06-10T02:42:11;23.07;;;15.20;;
74363;SDS011;62797;49.740;10.154;2023-06-10T02:44:37;22.67;;;12.97;;
74363;SDS011;62797;49.740;10.154;2023-06-10T02:49:30;31.20;;;15.95;;
74363;SDS011;62797;49.740;10.154;2023-06-10T02:51:58;32.22;;;15.05;;
74363;SDS011;62797;49.740;10.154;2023-06-10T02:54:24;19.50;;;13.73;;
74363;SDS011;62797;49.740;10.154;2023-06-10T02:56:52;28.27;;;16.23;;
74363;SDS011;62797;49.740;10.154;2023-06-10T02:59:22;27.67;;;15.98;;
74363;SDS011;62797;49.740;10.154;2023-06-10T03:01:48;27.40;;;15.80;;
74363;SDS011;62797;49.740;10.154;2023-06-10T03:04:14;19.77;;;14.27;;
74363;SDS011;62797;49.740;10.154;2023-06-10T03:06:45;24.63;;;14.20;;
74363;SDS011;62797;49.740;10.154;2023-06-10T03:09:18;23.25;;;13.82;;
74363;SDS011;62797;49.740;10.154;2023-06-10T03:11:51;19.80;;;13.77;;
74363;SDS011;62797;49.740;10.154;2023-06-10T03:14:18;25.33;;;14.43;;
74363;SDS011;62797;49.740;10.154;2023-06-10T03:16:44;25.53;;;17.00;;
74363;SDS011;62797;49.740;10.154;2023-06-10T03:19:11;25.63;;;16.45;;
74363;SDS011;62797;49.740;10.154;2023-06-10T03:21:43;27.80;;;17.23;;
74363;SDS011;62797;49.740;10.154;2023-06-10T03:24:10;32.15;;;16.40;;
74363;SDS011;62797;49.740;10.154;2023-06-10T03:29:03;26.70;;;16.77;;
74363;SDS011;62797;49.740;10.154;2023-06-10T03:31:30;24.60;;;15.18;;
74363;SDS011;62797;49.740;10.154;2023-06-10T03:36:24;34.65;;;18.60;;
74363;SDS011;62797;49.740;10.154;2023-06-10T03:38:54;28.45;;;16.55;;
74363;SDS011;62797;49.740;10.154;2023-06-10T03:41:22;22.95;;;15.63;;
74363;SDS011;62797;49.740;10.154;2023-06-10T03:43:49;21.60;;;14.32;;
74363;SDS011;62797;49.740;10.154;2023-06-10T03:46:15;29.05;;;15.68;;
74363;SDS011;62797;49.740;10.154;2023-06-10T03:48:43;25.77;;;17.15;;
74363;SDS011;62797;49.740;10.154;2023-06-10T03:51:09;32.25;;;14.35;;
74363;SDS011;62797;49.740;10.154;2023-06-10T03:53:35;17.80;;;13.17;;
74363;SDS011;62797;49.740;10.154;2023-06-10T03:56:01;20.05;;;12.88;;
74363;SDS011;62797;49.740;10.154;2023-06-10T04:00:53;20.83;;;13.93;;
74363;SDS011;62797;49.740;10.154;2023-06-10T04:03:28;23.10;;;14.77;;
74363;SDS011;62797;49.740;10.154;2023-06-10T04:05:54;19.63;;;16.00;;
74363;SDS011;62797;49.740;10.154;2023-06-10T04:08:19;30.60;;;15.82;;
74363;SDS011;62797;49.740;10.154;2023-06-10T04:10:45;25.52;;;15.45;;
74363;SDS011;62797;49.740;10.154;2023-06-10T04:13:12;27.55;;;15.15;;
74363;SDS011;62797;49.740;10.154;2023-06-10T04:15:45;23.33;;;14.15;;
74363;SDS011;62797;49.740;10.154;2023-06-10T04:18:14;28.90;;;16.63;;
74363;SDS011;62797;49.740;10.154;2023-06-10T04:20:43;27.27;;;15.52;;
74363;SDS011;62797;49.740;10.154;2023-06-10T04:23:10;25.40;;;14.57;;
74363;SDS011;62797;49.740;10.154;2023-06-10T04:25:36;20.15;;;16.23;;
74363;SDS011;62797;49.740;10.154;2023-06-10T04:28:03;21.98;;;16.48;;
74363;SDS011;62797;49.740;10.154;2023-06-10T04:30:29;20.33;;;16.15;;
74363;SDS011;62797;49.740;10.154;2023-06-10T04:32:57;20.73;;;14.27;;
74363;SDS011;62797;49.740;10.154;2023-06-10T04:35:22;24.25;;;15.27;;
74363;SDS011;62797;49.740;10.154;2023-06-10T04:37:48;25.27;;;16.17;;
74363;SDS011;62797;49.740;10.154;2023-06-10T04:40:15;32.08;;;15.00;;
74363;SDS011;62797;49.740;10.154;2023-06-10T04:42:41;22.08;;;14.60;;
74363;SDS011;62797;49.740;10.154;2023-06-10T04:45:08;28.80;;;15.95;;
74363;SDS011;62797;49.740;10.154;2023-06-10T04:47:34;23.60;;;15.55;;
74363;SDS011;62797;49.740;10.154;2023-06-10T04:50:00;24.63;;;15.23;;
74363;SDS011;62797;49.740;10.154;2023-06-10T04:52:28;21.73;;;15.05;;
74363;SDS011;62797;49.740;10.154;2023-06-10T04:54:54;21.17;;;15.60;;
74363;SDS011;62797;49.740;10.154;2023-06-10T04:57:20;35.17;;;16.37;;
74363;SDS011;62797;49.740;10.154;2023-06-10T04:59:46;20.55;;;16.77;;
74363;SDS011;62797;49.740;10.154;2023-06-10T05:02:13;29.92;;;19.20;;
74363;SDS011;62797;49.740;10.154;2023-06-10T05:04:39;19.27;;;11.05;;
74363;SDS011;62797;49.740;10.154;2023-06-10T05:07:04;22.37;;;14.07;;
74363;SDS011;62797;49.740;10.154;2023-06-10T05:09:30;21.30;;;16.15;;
74363;SDS011;62797;49.740;10.154;2023-06-10T05:11:56;21.27;;;16.98;;
74363;SDS011;62797;49.740;10.154;2023-06-10T05:14:22;20.65;;;15.35;;
74363;SDS011;62797;49.740;10.154;2023-06-10T05:16:48;20.80;;;16.10;;
74363;SDS011;62797;49.740;10.154;2023-06-10T05:21:41;21.07;;;14.57;;
74363;SDS011;62797;49.740;10.154;2023-06-10T05:24:07;17.27;;;14.07;;
74363;SDS011;62797;49.740;10.154;2023-06-10T05:26:33;21.15;;;15.07;;
74363;SDS011;62797;49.740;10.154;2023-06-10T05:29:02;24.15;;;13.88;;
74363;SDS011;62797;49.740;10.154;2023-06-10T05:31:29;17.65;;;13.27;;
74363;SDS011;62797;49.740;10.154;2023-06-10T05:33:54;19.73;;;14.30;;
74363;SDS011;62797;49.740;10.154;2023-06-10T05:36:20;26.60;;;16.23;;
74363;SDS011;62797;49.740;10.154;2023-06-10T05:38:46;21.73;;;16.60;;
74363;SDS011;62797;49.740;10.154;2023-06-10T05:41:12;26.05;;;16.27;;
74363;SDS011;62797;49.740;10.154;2023-06-10T05:43:38;25.13;;;15.13;;
74363;SDS011;62797;49.740;10.154;2023-06-10T05:46:03;24.87;;;16.27;;
74363;SDS011;62797;49.740;10.154;2023-06-10T05:48:29;20.50;;;14.32;;
74363;SDS011;62797;49.740;10.154;2023-06-10T05:50:55;18.17;;;13.40;;
74363;SDS011;62797;49.740;10.154;2023-06-10T05:53:21;19.17;;;13.20;;
74363;SDS011;62797;49.740;10.154;2023-06-10T05:55:46;19.73;;;14.07;;
74363;SDS011;62797;49.740;10.154;2023-06-10T05:58:14;16.80;;;13.00;;
74363;SDS011;62797;49.740;10.154;2023-06-10T06:00:40;22.02;;;15.25;;
74363;SDS011;62797;49.740;10.154;2023-06-10T06:03:06;16.48;;;12.45;;
74363;SDS011;62797;49.740;10.154;2023-06-10T06:05:33;17.25;;;13.07;;
74363;SDS011;62797;49.740;10.154;2023-06-10T06:08:04;20.88;;;13.20;;
74363;SDS011;62797;49.740;10.154;2023-06-10T06:10:30;20.30;;;12.13;;
74363;SDS011;62797;49.740;10.154;2023-06-10T06:12:56;18.83;;;13.00;;
74363;SDS011;62797;49.740;10.154;2023-06-10T06:15:22;17.23;;;12.75;;
74363;SDS011;62797;49.740;10.154;2023-06-10T06:17:48;22.58;;;12.32;;
74363;SDS011;62797;49.740;10.154;2023-06-10T06:20:13;23.07;;;12.77;;
74363;SDS011;62797;49.740;10.154;2023-06-10T06:22:42;18.02;;;10.90;;
74363;SDS011;62797;49.740;10.154;2023-06-10T06:25:07;16.63;;;11.30;;
74363;SDS011;62797;49.740;10.154;2023-06-10T06:27:33;12.82;;;10.00;;
74363;SDS011;62797;49.740;10.154;2023-06-10T06:29:59;16.37;;;11.33;;
74363;SDS011;62797;49.740;10.154;2023-06-10T06:32:25;16.02;;;11.48;;
74363;SDS011;62797;49.740;10.154;2023-06-10T06:34:52;17.50;;;12.18;;
74363;SDS011;62797;49.740;10.154;2023-06-10T06:37:23;13.35;;;11.45;;
74363;SDS011;62797;49.740;10.154;2023-06-10T06:39:53;15.90;;;11.55;;
74363;SDS011;62797;49.740;10.154;2023-06-10T06:42:19;14.23;;;11.07;;
74363;SDS011;62797;49.740;10.154;2023-06-10T06:45:00;14.15;;;11.07;;
74363;SDS011;62797;49.740;10.154;2023-06-10T06:47:25;13.00;;;11.10;;
74363;SDS011;62797;49.740;10.154;2023-06-10T06:49:51;16.45;;;10.75;;
74363;SDS011;62797;49.740;10.154;2023-06-10T06:52:17;14.73;;;11.30;;
74363;SDS011;62797;49.740;10.154;2023-06-10T06:57:09;13.98;;;10.70;;
74363;SDS011;62797;49.740;10.154;2023-06-10T06:59:35;11.55;;;10.07;;
74363;SDS011;62797;49.740;10.154;2023-06-10T07:02:01;14.63;;;9.87;;
74363;SDS011;62797;49.740;10.154;2023-06-10T07:06:54;16.27;;;10.90;;
74363;SDS011;62797;49.740;10.154;2023-06-10T07:09:19;16.17;;;10.67;;
74363;SDS011;62797;49.740;10.154;2023-06-10T07:11:45;14.93;;;11.32;;
74363;SDS011;62797;49.740;10.154;2023-06-10T07:14:11;11.87;;;10.17;;
74363;SDS011;62797;49.740;10.154;2023-06-10T07:16:37;13.60;;;9.93;;
74363;SDS011;62797;49.740;10.154;2023-06-10T07:19:02;13.82;;;9.85;;
74363;SDS011;62797;49.740;10.154;2023-06-10T07:21:29;17.52;;;11.60;;
74363;SDS011;62797;49.740;10.154;2023-06-10T07:23:55;11.68;;;10.18;;
74363;SDS011;62797;49.740;10.154;2023-06-10T07:26:24;10.68;;;9.20;;
74363;SDS011;62797;49.740;10.154;2023-06-10T07:28:51;14.48;;;10.02;;
74363;SDS011;62797;49.740;10.154;2023-06-10T07:31:17;12.88;;;9.70;;
74363;SDS011;62797;49.740;10.154;2023-06-10T07:33:42;14.82;;;10.82;;
74363;SDS011;62797;49.740;10.154;2023-06-10T07:36:10;12.35;;;10.35;;
74363;SDS011;62797;49.740;10.154;2023-06-10T07:38:36;16.23;;;10.13;;
74363;SDS011;62797;49.740;10.154;2023-06-10T07:41:02;14.55;;;9.05;;
74363;SDS011;62797;49.740;10.154;2023-06-10T07:43:28;14.38;;;9.65;;
74363;SDS011;62797;49.740;10.154;2023-06-10T07:45:53;12.30;;;9.88;;
74363;SDS011;62797;49.740;10.154;2023-06-10T07:48:19;14.77;;;10.25;;
74363;SDS011;62797;49.740;10.154;2023-06-10T07:50:45;14.82;;;10.68;;
74363;SDS011;62797;49.740;10.154;2023-06-10T07:53:10;14.30;;;10.23;;
74363;SDS011;62797;49.740;10.154;2023-06-10T07:55:36;12.65;;;9.93;;
74363;SDS011;62797;49.740;10.154;2023-06-10T07:58:02;11.85;;;9.43;;
74363;SDS011;62797;49.740;10.154;2023-06-10T08:00:28;11.37;;;9.77;;
74363;SDS011;62797;49.740;10.154;2023-06-10T08:02:54;16.27;;;11.50;;
74363;SDS011;62797;49.740;10.154;2023-06-10T08:05:20;13.80;;;9.50;;
74363;SDS011;62797;49.740;10.154;2023-06-10T08:07:46;19.95;;;8.80;;
74363;SDS011;62797;49.740;10.154;2023-06-10T08:10:12;9.55;;;8.18;;
74363;SDS011;62797;49.740;10.154;2023-06-10T08:12:38;9.90;;;7.00;;
74363;SDS011;62797;49.740;10.154;2023-06-10T08:15:04;11.23;;;7.35;;
74363;SDS011;62797;49.740;10.154;2023-06-10T08:17:30;8.05;;;7.22;;
74363;SDS011;62797;49.740;10.154;2023-06-10T08:19:56;11.23;;;7.22;;
74363;SDS011;62797;49.740;10.154;2023-06-10T08:22:21;8.90;;;6.45;;
74363;SDS011;62797;49.740;10.154;2023-06-10T08:24:48;9.98;;;6.20;;
74363;SDS011;62797;49.740;10.154;2023-06-10T08:27:13;54.10;;;31.77;;
74363;SDS011;62797;49.740;10.154;2023-06-10T08:29:39;35.00;;;21.30;;
74363;SDS011;62797;49.740;10.154;2023-06-10T08:32:05;47.38;;;27.73;;
74363;SDS011;62797;49.740;10.154;2023-06-10T08:34:34;33.08;;;17.77;;
74363;SDS011;62797;49.740;10.154;2023-06-10T08:37:01;12.80;;;9.57;;
74363;SDS011;62797;49.740;10.154;2023-06-10T08:39:27;27.23;;;15.73;;
74363;SDS011;62797;49.740;10.154;2023-06-10T08:44:35;43.00;;;22.88;;
74363;SDS011;62797;49.740;10.154;2023-06-10T08:47:11;61.22;;;35.38;;
74363;SDS011;62797;49.740;10.154;2023-06-10T08:49:44;52.63;;;32.28;;
74363;SDS011;62797;49.740;10.154;2023-06-10T08:52:14;23.67;;;16.75;;
74363;SDS011;62797;49.740;10.154;2023-06-10T08:54:48;12.18;;;8.95;;
74363;SDS011;62797;49.740;10.154;2023-06-10T08:57:21;7.45;;;5.97;;
74363;SDS011;62797;49.740;10.154;2023-06-10T08:59:53;7.10;;;6.00;;
74363;SDS011;62797;49.740;10.154;2023-06-10T09:02:27;8.68;;;5.70;;
74363;SDS011;62797;49.740;10.154;2023-06-10T09:04:57;15.48;;;7.82;;
74363;SDS011;62797;49.740;10.154;2023-06-10T09:07:29;16.35;;;7.25;;
74363;SDS011;62797;49.740;10.154;2023-06-10T09:10:01;5.70;;;5.20;;
74363;SDS011;62797;49.740;10.154;2023-06-10T09:12:32;7.93;;;5.75;;
74363;SDS011;62797;49.740;10.154;2023-06-10T09:15:01;12.60;;;7.47;;
74363;SDS011;62797;49.740;10.154;2023-06-10T09:17:27;7.47;;;5.10;;
74363;SDS011;62797;49.740;10.154;2023-06-10T09:19:54;6.70;;;5.28;;
74363;SDS011;62797;49.740;10.154;2023-06-10T09:22:23;8.40;;;5.55;;
74363;SDS011;62797;49.740;10.154;2023-06-10T09:24:50;8.05;;;5.68;;
74363;SDS011;62797;49.740;10.154;2023-06-10T09:27:16;6.53;;;5.38;;
74363;SDS011;62797;49.740;10.154;2023-06-10T09:29:48;6.13;;;4.40;;
74363;SDS011;62797;49.740;10.154;2023-06-10T09:32:20;7.78;;;5.35;;
74363;SDS011;62797;49.740;10.154;2023-06-10T09:34:47;9.23;;;6.00;;
74363;SDS011;62797;49.740;10.154;2023-06-10T09:37:19;7.05;;;4.53;;
74363;SDS011;62797;49.740;10.154;2023-06-10T09:40:00;5.43;;;4.70;;
74363;SDS011;62797;49.740;10.154;2023-06-10T09:42:34;5.65;;;4.75;;
74363;SDS011;62797;49.740;10.154;2023-06-10T09:45:04;7.00;;;5.05;;
74363;SDS011;62797;49.740;10.154;2023-06-10T09:47:31;5.80;;;4.28;;
74363;SDS011;62797;49.740;10.154;2023-06-10T09:50:03;6.32;;;4.82;;
74363;SDS011;62797;49.740;10.154;2023-06-10T09:52:32;6.63;;;4.72;;
74363;SDS011;62797;49.740;10.154;2023-06-10T09:54:59;5.80;;;5.20;;
74363;SDS011;62797;49.740;10.154;2023-06-10T09:57:30;9.15;;;7.32;;
74363;SDS011;62797;49.740;10.154;2023-06-10T09:59:59;7.55;;;5.20;;
74363;SDS011;62797;49.740;10.154;2023-06-10T10:02:46;9.80;;;5.28;;
74363;SDS011;62797;49.740;10.154;2023-06-10T10:05:16;8.77;;;4.78;;
74363;SDS011;62797;49.740;10.154;2023-06-10T10:07:47;6.38;;;5.20;;
74363;SDS011;62797;49.740;10.154;2023-06-10T10:10:13;5.95;;;5.13;;
74363;SDS011;62797;49.740;10.154;2023-06-10T10:12:40;8.93;;;5.38;;
74363;SDS011;62797;49.740;10.154;2023-06-10T10:15:11;6.85;;;5.35;;
74363;SDS011;62797;49.740;10.154;2023-06-10T10:17:40;6.47;;;5.13;;
74363;SDS011;62797;49.740;10.154;2023-06-10T10:20:12;7.93;;;4.95;;
74363;SDS011;62797;49.740;10.154;2023-06-10T10:22:41;7.55;;;5.10;;
74363;SDS011;62797;49.740;10.154;2023-06-10T10:25:12;8.25;;;6.25;;
74363;SDS011;62797;49.740;10.154;2023-06-10T10:27:46;5.90;;;4.50;;
74363;SDS011;62797;49.740;10.154;2023-06-10T10:30:17;7.75;;;5.43;;
74363;SDS011;62797;49.740;10.154;2023-06-10T10:35:21;6.05;;;5.22;;
74363;SDS011;62797;49.740;10.154;2023-06-10T10:37:48;6.18;;;4.57;;
74363;SDS011;62797;49.740;10.154;2023-06-10T10:40:18;4.63;;;4.20;;
74363;SDS011;62797;49.740;10.154;2023-06-10T10:42:47;6.65;;;5.07;;
74363;SDS011;62797;49.740;10.154;2023-06-10T10:45:16;5.38;;;4.40;;
74363;SDS011;62797;49.740;10.154;2023-06-10T10:50:16;6.53;;;4.05;;
74363;SDS011;62797;49.740;10.154;2023-06-10T10:53:02;6.35;;;3.80;;
74363;SDS011;62797;49.740;10.154;2023-06-10T10:55:29;3.88;;;3.35;;
74363;SDS011;62797;49.740;10.154;2023-06-10T11:00:43;9.32;;;5.60;;
74363;SDS011;62797;49.740;10.154;2023-06-10T11:03:12;10.25;;;4.63;;
74363;SDS011;62797;49.740;10.154;2023-06-10T11:05:41;10.00;;;4.32;;
74363;SDS011;62797;49.740;10.154;2023-06-10T11:08:13;8.65;;;3.17;;
74363;SDS011;62797;49.740;10.154;2023-06-10T11:10:40;5.85;;;3.92;;
74363;SDS011;62797;49.740;10.154;2023-06-10T11:13:26;4.57;;;3.40;;
74363;SDS011;62797;49.740;10.154;2023-06-10T11:15:56;4.32;;;3.35;;
74363;SDS011;62797;49.740;10.154;2023-06-10T11:18:23;5.97;;;3.58;;
74363;SDS011;62797;49.740;10.154;2023-06-10T11:31:19;5.00;;;3.65;;
74363;SDS011;62797;49.740;10.154;2023-06-10T11:33:49;6.25;;;3.15;;
74363;SDS011;62797;49.740;10.154;2023-06-10T11:36:21;6.15;;;3.47;;
74363;SDS011;62797;49.740;10.154;2023-06-10T11:38:48;10.32;;;4.00;;
74363;SDS011;62797;49.740;10.154;2023-06-10T11:41:14;6.85;;;4.13;;
74363;SDS011;62797;49.740;10.154;2023-06-10T11:43:42;8.85;;;4.68;;
74363;SDS011;62797;49.740;10.154;2023-06-10T11:46:10;7.53;;;4.68;;
74363;SDS011;62797;49.740;10.154;2023-06-10T11:48:36;7.25;;;3.83;;
74363;SDS011;62797;49.740;10.154;2023-06-10T11:53:34;5.60;;;3.15;;
74363;SDS011;62797;49.740;10.154;2023-06-10T11:56:00;3.97;;;3.40;;
74363;SDS011;62797;49.740;10.154;2023-06-10T12:00:53;3.97;;;3.55;;
74363;SDS011;62797;49.740;10.154;2023-06-10T12:03:23;7.85;;;3.63;;
74363;SDS011;62797;49.740;10.154;2023-06-10T12:05:57;5.57;;;3.78;;
74363;SDS011;62797;49.740;10.154;2023-06-10T12:08:23;6.15;;;3.63;;
74363;SDS011;62797;49.740;10.154;2023-06-10T12:13:15;5.43;;;3.78;;
74363;SDS011;62797;49.740;10.154;2023-06-10T12:15:43;5.43;;;3.78;;
74363;SDS011;62797;49.740;10.154;2023-06-10T12:18:15;4.63;;;3.50;;
74363;SDS011;62797;49.740;10.154;2023-06-10T12:20:45;6.50;;;4.63;;
74363;SDS011;62797;49.740;10.154;2023-06-10T12:23:12;6.68;;;4.63;;
74363;SDS011;62797;49.740;10.154;2023-06-10T12:25:38;5.03;;;4.20;;
74363;SDS011;62797;49.740;10.154;2023-06-10T12:28:04;10.15;;;6.88;;
74363;SDS011;62797;49.740;10.154;2023-06-10T12:30:31;6.47;;;4.43;;
74363;SDS011;62797;49.740;10.154;2023-06-10T12:32:58;5.63;;;4.30;;
74363;SDS011;62797;49.740;10.154;2023-06-10T12:35:24;5.75;;;3.35;;
74363;SDS011;62797;49.740;10.154;2023-06-10T12:40:25;8.13;;;4.32;;
74363;SDS011;62797;49.740;10.154;2023-06-10T12:42:56;4.30;;;3.90;;
74363;SDS011;62797;49.740;10.154;2023-06-10T12:45:29;5.85;;;3.45;;
74363;SDS011;62797;49.740;10.154;2023-06-10T12:48:05;8.40;;;3.92;;
74363;SDS011;62797;49.740;10.154;2023-06-10T12:50:44;5.57;;;3.97;;
74363;SDS011;62797;49.740;10.154;2023-06-10T12:53:15;4.07;;;3.45;;
74363;SDS011;62797;49.740;10.154;2023-06-10T12:55:41;4.20;;;3.80;;
74363;SDS011;62797;49.740;10.154;2023-06-10T12:58:07;3.95;;;3.55;;
74363;SDS011;62797;49.740;10.154;2023-06-10T13:03:00;4.00;;;3.63;;
74363;SDS011;62797;49.740;10.154;2023-06-10T13:05:27;3.80;;;3.00;;
74363;SDS011;62797;49.740;10.154;2023-06-10T13:07:53;3.08;;;2.78;;
74363;SDS011;62797;49.740;10.154;2023-06-10T13:12:45;2.72;;;2.25;;
74363;SDS011;62797;49.740;10.154;2023-06-10T13:15:11;3.15;;;2.42;;
74363;SDS011;62797;49.740;10.154;2023-06-10T13:17:37;4.63;;;2.80;;
74363;SDS011;62797;49.740;10.154;2023-06-10T13:20:04;3.10;;;2.80;;
74363;SDS011;62797;49.740;10.154;2023-06-10T13:22:31;3.95;;;3.30;;
74363;SDS011;62797;49.740;10.154;2023-06-10T13:24:58;3.63;;;2.88;;
74363;SDS011;62797;49.740;10.154;2023-06-10T13:27:24;3.45;;;2.70;;
74363;SDS011;62797;49.740;10.154;2023-06-10T13:29:51;3.15;;;2.80;;
74363;SDS011;62797;49.740;10.154;2023-06-10T13:34:42;4.93;;;2.75;;
74363;SDS011;62797;49.740;10.154;2023-06-10T13:37:08;5.20;;;3.70;;
74363;SDS011;62797;49.740;10.154;2023-06-10T13:39:33;3.67;;;3.30;;
74363;SDS011;62797;49.740;10.154;2023-06-10T13:41:59;2.88;;;2.63;;
74363;SDS011;62797;49.740;10.154;2023-06-10T13:44:25;6.00;;;3.00;;
74363;SDS011;62797;49.740;10.154;2023-06-10T13:46:51;4.60;;;3.10;;
74363;SDS011;62797;49.740;10.154;2023-06-10T13:49:16;3.83;;;3.28;;
74363;SDS011;62797;49.740;10.154;2023-06-10T13:54:08;2.83;;;2.63;;
74363;SDS011;62797;49.740;10.154;2023-06-10T13:56:33;7.20;;;2.72;;
74363;SDS011;62797;49.740;10.154;2023-06-10T13:59:03;4.25;;;3.20;;
74363;SDS011;62797;49.740;10.154;2023-06-10T14:01:29;3.35;;;2.55;;
74363;SDS011;62797;49.740;10.154;2023-06-10T14:06:20;3.13;;;2.55;;
74363;SDS011;62797;49.740;10.154;2023-06-10T14:11:12;3.15;;;2.60;;
74363;SDS011;62797;49.740;10.154;2023-06-10T14:13:37;3.83;;;2.75;;
74363;SDS011;62797;49.740;10.154;2023-06-10T14:16:04;2.70;;;2.50;;
74363;SDS011;62797;49.740;10.154;2023-06-10T14:18:30;2.67;;;2.47;;
74363;SDS011;62797;49.740;10.154;2023-06-10T14:23:21;2.28;;;2.08;;
74363;SDS011;62797;49.740;10.154;2023-06-10T14:25:47;2.83;;;2.40;;
74363;SDS011;62797;49.740;10.154;2023-06-10T14:30:39;2.45;;;2.25;;
74363;SDS011;62797;49.740;10.154;2023-06-10T14:35:30;2.17;;;2.08;;
74363;SDS011;62797;49.740;10.154;2023-06-10T14:40:22;2.33;;;2.13;;
74363;SDS011;62797;49.740;10.154;2023-06-10T14:42:49;5.03;;;2.40;;
74363;SDS011;62797;49.740;10.154;2023-06-10T14:47:41;5.40;;;3.17;;
74363;SDS011;62797;49.740;10.154;2023-06-10T14:52:32;10.25;;;5.28;;
74363;SDS011;62797;49.740;10.154;2023-06-10T14:57:24;4.88;;;3.63;;
74363;SDS011;62797;49.740;10.154;2023-06-10T15:02:15;9.85;;;2.97;;
74363;SDS011;62797;49.740;10.154;2023-06-10T15:04:41;5.25;;;2.83;;
74363;SDS011;62797;49.740;10.154;2023-06-10T15:07:07;7.35;;;3.60;;
74363;SDS011;62797;49.740;10.154;2023-06-10T15:09:33;8.50;;;3.38;;
74363;SDS011;62797;49.740;10.154;2023-06-10T15:11:59;8.80;;;3.95;;
74363;SDS011;62797;49.740;10.154;2023-06-10T15:14:25;5.03;;;3.42;;
74363;SDS011;62797;49.740;10.154;2023-06-10T15:16:51;6.68;;;3.67;;
74363;SDS011;62797;49.740;10.154;2023-06-10T15:19:17;4.72;;;3.38;;
74363;SDS011;62797;49.740;10.154;2023-06-10T15:21:42;4.93;;;3.15;;
74363;SDS011;62797;49.740;10.154;2023-06-10T15:24:08;6.68;;;4.03;;
74363;SDS011;62797;49.740;10.154;2023-06-10T15:29:00;9.73;;;3.40;;
74363;SDS011;62797;49.740;10.154;2023-06-10T15:31:30;5.20;;;3.80;;
74363;SDS011;62797;49.740;10.154;2023-06-10T15:33:58;5.72;;;4.10;;
74363;SDS011;62797;49.740;10.154;2023-06-10T15:38:51;5.50;;;3.92;;
74363;SDS011;62797;49.740;10.154;2023-06-10T15:41:16;11.43;;;4.70;;
74363;SDS011;62797;49.740;10.154;2023-06-10T15:43:42;9.38;;;5.60;;
74363;SDS011;62797;49.740;10.154;2023-06-10T15:46:08;6.32;;;4.82;;
74363;SDS011;62797;49.740;10.154;2023-06-10T15:48:34;9.40;;;4.82;;
74363;SDS011;62797;49.740;10.154;2023-06-10T15:51:00;7.05;;;5.05;;
74363;SDS011;62797;49.740;10.154;2023-06-10T15:53:26;8.65;;;6.45;;
74363;SDS011;62797;49.740;10.154;2023-06-10T15:55:51;7.88;;;5.57;;
74363;SDS011;62797;49.740;10.154;2023-06-10T15:58:17;7.78;;;5.35;;